createdAt,value
2023-07-15T00:01:31.306Z,45.60
2023-07-15T00:03:58.891Z,45.90
2023-07-15T00:06:26.204Z,46.10
2023-07-15T00:08:54.713Z,45.40
2023-07-15T00:11:27.206Z,45.10
2023-07-15T00:13:55.048Z,45.60
2023-07-15T00:16:22.442Z,45.40
2023-07-15T00:18:49.697Z,46.00
2023-07-15T00:21:21.817Z,46.50
2023-07-15T00:23:55.019Z,45.40
2023-07-15T00:26:27.056Z,45.80
2023-07-15T00:28:56.047Z,46.20
2023-07-15T00:31:24.414Z,46.50
2023-07-15T00:33:52.222Z,46.30
2023-07-15T00:36:20.264Z,46.10
2023-07-15T00:38:48.138Z,45.80
2023-07-15T00:41:28.154Z,46.30
2023-07-15T00:43:58.395Z,45.70
2023-07-15T00:47:13.615Z,45.90
2023-07-15T00:49:40.861Z,45.70
2023-07-15T00:52:10.976Z,45.80
2023-07-15T00:54:42.850Z,45.90
2023-07-15T00:57:10.709Z,46.20
2023-07-15T00:59:40.096Z,46.10
2023-07-15T01:02:09.009Z,46.00
2023-07-15T01:04:36.914Z,46.10
2023-07-15T01:07:07.834Z,46.20
2023-07-15T01:09:37.459Z,46.00
2023-07-15T01:12:05.794Z,46.00
2023-07-15T01:14:34.234Z,46.20
2023-07-15T01:17:03.093Z,45.70
2023-07-15T01:19:31.326Z,45.80
2023-07-15T01:21:58.914Z,45.90
2023-07-15T01:24:27.313Z,45.70
2023-07-15T01:27:02.998Z,46.00
2023-07-15T01:29:30.617Z,45.70
2023-07-15T01:31:57.789Z,46.00
2023-07-15T01:34:25.779Z,45.90
2023-07-15T01:36:52.930Z,45.80
2023-07-15T01:39:21.001Z,46.00
2023-07-15T01:41:48.283Z,45.70
2023-07-15T01:44:17.030Z,46.10
2023-07-15T01:46:44.553Z,45.90
2023-07-15T01:49:11.727Z,45.70
2023-07-15T01:51:38.944Z,45.60
2023-07-15T01:54:06.132Z,46.10
2023-07-15T01:56:33.371Z,46.20
2023-07-15T01:59:00.509Z,46.30
2023-07-15T02:01:28.369Z,46.20
2023-07-15T02:03:55.924Z,46.00
2023-07-15T02:06:24.959Z,46.10
2023-07-15T02:08:52.091Z,46.10
2023-07-15T02:11:21.999Z,45.70
2023-07-15T02:13:51.495Z,45.60
2023-07-15T02:16:18.827Z,45.90
2023-07-15T02:18:45.925Z,45.50
2023-07-15T02:21:13.039Z,46.10
2023-07-15T02:23:40.080Z,46.00
2023-07-15T02:26:07.144Z,46.20
2023-07-15T02:28:34.685Z,46.30
2023-07-15T02:31:03.977Z,45.80
2023-07-15T02:33:34.351Z,46.20
2023-07-15T02:36:05.072Z,45.30
2023-07-15T02:38:32.756Z,46.00
2023-07-15T02:41:03.019Z,45.70
2023-07-15T02:43:33.151Z,46.30
2023-07-15T02:46:01.659Z,46.20
2023-07-15T02:48:28.695Z,46.30
2023-07-15T02:50:56.070Z,46.20
2023-07-15T02:53:23.313Z,46.30
2023-07-15T02:55:52.203Z,46.10
2023-07-15T02:58:20.087Z,46.40
2023-07-15T03:00:47.400Z,46.30
2023-07-15T03:03:14.834Z,46.30
2023-07-15T03:05:49.517Z,46.20
2023-07-15T03:08:17.092Z,46.20
2023-07-15T03:10:44.861Z,45.90
2023-07-15T03:13:12.032Z,46.00
2023-07-15T03:15:40.708Z,45.80
2023-07-15T03:18:08.221Z,45.80
2023-07-15T03:20:36.284Z,45.90
2023-07-15T03:23:05.262Z,45.60
2023-07-15T03:25:32.639Z,45.80
2023-07-15T03:28:00.410Z,45.70
2023-07-15T03:30:27.846Z,45.70
2023-07-15T03:32:57.811Z,45.20
2023-07-15T03:35:25.327Z,44.30
2023-07-15T03:37:53.511Z,44.40
2023-07-15T03:40:21.001Z,43.90
2023-07-15T03:42:48.087Z,42.90
2023-07-15T03:45:16.502Z,42.70
2023-07-15T03:47:43.582Z,41.80
2023-07-15T03:50:11.244Z,41.60
2023-07-15T03:52:38.419Z,40.80
2023-07-15T03:55:07.055Z,40.30
2023-07-15T03:57:34.722Z,39.90
2023-07-15T04:00:01.962Z,39.80
2023-07-15T04:02:40.682Z,39.80
2023-07-15T04:05:08.653Z,39.70
2023-07-15T04:07:35.752Z,39.10
2023-07-15T04:10:03.031Z,39.30
2023-07-15T04:12:30.127Z,39.60
2023-07-15T04:14:57.207Z,39.30
2023-07-15T04:17:24.991Z,39.20
2023-07-15T04:19:52.084Z,39.30
2023-07-15T04:22:19.155Z,39.20
2023-07-15T04:24:46.967Z,39.50
2023-07-15T04:27:14.178Z,39.40
2023-07-15T04:29:41.255Z,39.40
2023-07-15T04:32:08.546Z,39.60
2023-07-15T04:34:35.555Z,39.50
2023-07-15T04:37:03.524Z,39.50
2023-07-15T04:39:31.952Z,39.60
2023-07-15T04:41:59.908Z,39.50
2023-07-15T04:44:26.993Z,39.80
2023-07-15T04:46:54.835Z,39.70
2023-07-15T04:49:22.920Z,39.70
2023-07-15T04:51:49.969Z,39.70
2023-07-15T04:54:18.470Z,39.70
2023-07-15T04:56:46.045Z,40.00
2023-07-15T04:59:13.937Z,40.00
2023-07-15T05:01:41.088Z,39.80
2023-07-15T05:04:08.809Z,39.70
2023-07-15T05:06:38.114Z,39.80
2023-07-15T05:09:06.139Z,39.70
2023-07-15T05:11:33.629Z,39.90
2023-07-15T05:14:00.783Z,40.00
2023-07-15T05:16:28.894Z,40.20
2023-07-15T05:18:56.844Z,40.70
2023-07-15T05:21:23.853Z,41.10
2023-07-15T05:23:50.943Z,40.90
2023-07-15T05:26:17.959Z,40.80
2023-07-15T05:28:45.036Z,41.00
2023-07-15T05:31:12.492Z,41.30
2023-07-15T05:33:40.540Z,41.30
2023-07-15T05:36:09.078Z,41.40
2023-07-15T05:38:43.743Z,41.70
2023-07-15T05:41:12.283Z,42.00
2023-07-15T05:43:39.510Z,42.30
2023-07-15T05:46:06.659Z,42.40
2023-07-15T05:48:33.733Z,42.40
2023-07-15T05:51:00.988Z,42.70
2023-07-15T05:53:30.030Z,43.10
2023-07-15T05:55:57.617Z,42.60
2023-07-15T05:58:24.818Z,42.70
2023-07-15T06:00:52.638Z,42.70
2023-07-15T06:03:20.063Z,42.50
2023-07-15T06:05:47.141Z,42.10
2023-07-15T06:08:14.255Z,41.70
2023-07-15T06:10:44.098Z,42.00
2023-07-15T06:13:11.942Z,42.70
2023-07-15T06:15:40.167Z,42.40
2023-07-15T06:18:07.531Z,42.10
2023-07-15T06:20:39.479Z,42.20
2023-07-15T06:23:06.815Z,42.10
2023-07-15T06:25:34.620Z,42.20
2023-07-15T06:28:02.916Z,41.80
2023-07-15T06:30:29.995Z,41.70
2023-07-15T06:32:57.276Z,42.10
2023-07-15T06:35:24.615Z,42.30
2023-07-15T06:37:52.024Z,41.80
2023-07-15T06:40:19.400Z,41.70
2023-07-15T06:42:47.240Z,41.60
2023-07-15T06:45:14.659Z,41.60
2023-07-15T06:47:42.182Z,41.70
2023-07-15T06:50:10.059Z,41.60
2023-07-15T06:52:37.491Z,41.40
2023-07-15T06:55:04.733Z,41.00
2023-07-15T06:57:33.127Z,41.10
2023-07-15T07:00:03.387Z,41.20
2023-07-15T07:02:31.103Z,41.00
2023-07-15T07:04:58.210Z,40.70
2023-07-15T07:07:25.977Z,41.20
2023-07-15T07:09:53.021Z,41.20
2023-07-15T07:12:20.137Z,41.30
2023-07-15T07:14:47.333Z,41.20
2023-07-15T07:17:14.463Z,41.20
2023-07-15T07:19:43.158Z,40.60
2023-07-15T07:22:10.206Z,41.10
2023-07-15T07:24:37.871Z,40.80
2023-07-15T07:27:05.965Z,40.60
2023-07-15T07:29:32.985Z,40.20
2023-07-15T07:32:00.047Z,40.50
2023-07-15T07:34:27.375Z,40.90
2023-07-15T07:36:54.449Z,40.50
2023-07-15T07:39:21.847Z,40.50
2023-07-15T07:41:48.865Z,40.30
2023-07-15T07:44:16.026Z,40.60
2023-07-15T07:46:43.093Z,40.80
2023-07-15T07:49:13.302Z,40.00
2023-07-15T07:51:40.713Z,40.10
2023-07-15T07:54:07.843Z,40.20
2023-07-15T07:56:34.979Z,40.00
2023-07-15T07:59:03.211Z,38.90
2023-07-15T08:01:32.334Z,38.80
2023-07-15T08:03:59.725Z,37.70
2023-07-15T08:06:26.974Z,37.50
2023-07-15T08:08:56.051Z,37.30
2023-07-15T08:11:23.201Z,37.70
2023-07-15T08:13:50.855Z,36.80
2023-07-15T08:16:35.050Z,36.70
2023-07-15T08:19:02.879Z,36.20
2023-07-15T08:21:30.109Z,36.40
2023-07-15T08:23:57.483Z,36.60
2023-07-15T08:26:24.935Z,35.90
2023-07-15T08:28:53.023Z,35.70
2023-07-15T08:31:20.158Z,35.40
2023-07-15T08:33:47.201Z,35.20
2023-07-15T08:36:14.356Z,34.90
2023-07-15T08:38:41.406Z,34.90
2023-07-15T08:41:08.785Z,34.90
2023-07-15T08:43:35.803Z,35.10
2023-07-15T08:46:09.252Z,35.40
2023-07-15T08:48:36.976Z,35.60
2023-07-15T08:51:05.958Z,35.30
2023-07-15T08:53:33.054Z,34.80
2023-07-15T09:01:13.968Z,35.20
2023-07-15T09:03:41.332Z,35.70
2023-07-15T09:06:08.513Z,34.40
2023-07-15T09:08:35.802Z,34.50
2023-07-15T09:11:04.243Z,34.10
2023-07-15T09:13:33.905Z,34.70
2023-07-15T09:16:03.071Z,35.40
2023-07-15T09:18:31.017Z,35.20
2023-07-15T09:21:12.307Z,34.10
2023-07-15T09:23:42.039Z,34.40
2023-07-15T09:26:09.988Z,34.30
2023-07-15T09:28:37.887Z,34.40
2023-07-15T09:31:05.668Z,33.90
2023-07-15T09:33:36.551Z,34.00
2023-07-15T09:36:04.831Z,33.50
2023-07-15T09:38:38.207Z,33.80
2023-07-15T09:41:09.306Z,33.70
2023-07-15T09:43:49.599Z,33.10
2023-07-15T09:46:18.747Z,33.50
2023-07-15T09:48:46.560Z,33.20
2023-07-15T09:51:15.205Z,33.40
2023-07-15T09:53:56.422Z,34.00
2023-07-15T09:56:27.140Z,34.30
2023-07-15T09:58:58.899Z,33.90
2023-07-15T10:01:55.020Z,34.20
2023-07-15T10:04:36.564Z,34.80
2023-07-15T10:07:04.933Z,34.70
2023-07-15T10:09:32.815Z,33.90
2023-07-15T10:12:01.163Z,33.30
2023-07-15T10:14:32.009Z,33.70
2023-07-15T10:17:12.934Z,33.90
2023-07-15T10:20:02.991Z,33.90
2023-07-15T10:22:35.080Z,33.70
2023-07-15T10:25:05.241Z,33.40
2023-07-15T10:27:33.530Z,33.20
2023-07-15T10:30:20.027Z,33.70
2023-07-15T10:33:10.675Z,33.50
2023-07-15T10:35:40.879Z,33.80
2023-07-15T10:38:24.641Z,33.80
2023-07-15T10:41:03.513Z,33.80
2023-07-15T10:43:38.975Z,34.30
2023-07-15T10:46:10.750Z,33.50
2023-07-15T10:48:38.300Z,33.20
2023-07-15T10:51:09.672Z,33.20
2023-07-15T10:53:37.008Z,33.60
2023-07-15T10:56:14.139Z,33.00
2023-07-15T10:58:42.267Z,32.90
2023-07-15T11:01:10.902Z,33.90
2023-07-15T11:03:45.331Z,33.80
2023-07-15T11:06:13.237Z,34.10
2023-07-15T11:08:41.521Z,33.20
2023-07-15T11:11:11.504Z,33.40
2023-07-15T11:13:42.185Z,33.00
2023-07-15T11:16:09.507Z,32.80
2023-07-15T11:18:36.646Z,32.80
2023-07-15T11:21:03.889Z,33.60
2023-07-15T11:23:32.251Z,33.50
2023-07-15T11:26:13.667Z,33.50
2023-07-15T11:28:50.684Z,32.80
2023-07-15T11:31:20.822Z,32.60
2023-07-15T11:33:53.018Z,32.70
2023-07-15T11:36:20.217Z,32.30
2023-07-15T11:38:47.407Z,32.40
2023-07-15T11:41:14.465Z,32.70
2023-07-15T11:43:41.523Z,32.30
2023-07-15T11:46:08.664Z,32.70
2023-07-15T11:48:36.227Z,33.20
2023-07-15T11:51:12.417Z,33.50
2023-07-15T11:53:39.987Z,33.30
2023-07-15T11:56:10.079Z,32.70
2023-07-15T11:58:57.415Z,33.00
2023-07-15T12:01:27.424Z,32.60
2023-07-15T12:03:55.261Z,32.10
2023-07-15T12:06:30.320Z,32.30
2023-07-15T12:09:01.985Z,32.00
2023-07-15T12:11:30.665Z,31.30
2023-07-15T12:13:58.132Z,31.50
2023-07-15T12:16:25.678Z,31.60
2023-07-15T12:18:54.113Z,32.10
2023-07-15T12:21:22.429Z,32.00
2023-07-15T12:23:51.472Z,31.80
2023-07-15T12:26:19.430Z,32.00
2023-07-15T12:28:46.974Z,31.90
2023-07-15T12:31:15.192Z,32.40
2023-07-15T12:33:42.841Z,31.70
2023-07-15T12:36:11.250Z,31.10
2023-07-15T12:38:38.781Z,30.90
2023-07-15T12:41:06.374Z,30.70
2023-07-15T12:43:33.651Z,31.00
2023-07-15T12:46:01.047Z,31.10
2023-07-15T12:48:29.013Z,31.60
2023-07-15T12:50:56.106Z,31.90
2023-07-15T12:53:23.895Z,31.50
2023-07-15T12:55:51.839Z,31.30
2023-07-15T12:58:19.284Z,30.50
2023-07-15T13:00:47.257Z,30.00
2023-07-15T13:03:14.376Z,29.00
2023-07-15T13:05:41.470Z,28.90
2023-07-15T13:08:08.966Z,29.10
2023-07-15T13:10:35.939Z,29.30
2023-07-15T13:13:04.014Z,29.60
2023-07-15T13:15:31.633Z,29.60
2023-07-15T13:17:58.908Z,29.70
2023-07-15T13:20:26.061Z,29.50
2023-07-15T13:22:53.141Z,29.40
2023-07-15T13:25:20.295Z,29.30
2023-07-15T13:27:47.285Z,28.60
2023-07-15T13:30:14.393Z,29.00
2023-07-15T13:32:41.430Z,29.10
2023-07-15T13:35:08.791Z,29.20
2023-07-15T13:37:35.838Z,29.40
2023-07-15T13:40:02.992Z,29.60
2023-07-15T13:42:30.865Z,29.50
2023-07-15T13:44:58.399Z,29.70
2023-07-15T13:47:25.415Z,29.20
2023-07-15T13:49:53.029Z,29.60
2023-07-15T13:52:20.125Z,29.30
2023-07-15T13:54:47.151Z,29.40
2023-07-15T13:57:14.183Z,29.00
2023-07-15T13:59:41.235Z,29.50
2023-07-15T14:02:08.268Z,28.70
2023-07-15T14:04:35.629Z,29.40
2023-07-15T14:07:02.890Z,29.00
2023-07-15T14:09:30.361Z,29.20
2023-07-15T14:11:57.929Z,29.30
2023-07-15T14:14:24.950Z,29.10
2023-07-15T14:16:51.987Z,28.80
2023-07-15T14:19:19.042Z,28.90
2023-07-15T14:21:46.894Z,28.90
2023-07-15T14:24:13.955Z,29.40
2023-07-15T14:26:40.985Z,29.60
2023-07-15T14:29:08.892Z,29.70
2023-07-15T14:31:35.942Z,29.40
2023-07-15T14:34:02.997Z,29.60
2023-07-15T14:36:31.932Z,29.70
2023-07-15T14:38:59.949Z,29.90
2023-07-15T14:41:28.018Z,29.90
2023-07-15T14:43:55.029Z,29.70
2023-07-15T14:46:22.690Z,29.90
2023-07-15T14:48:49.698Z,28.80
2023-07-15T14:51:17.173Z,28.60
2023-07-15T14:53:44.388Z,28.00
2023-07-15T14:56:11.379Z,28.00
2023-07-15T14:58:38.454Z,28.10
2023-07-15T15:01:05.992Z,28.40
2023-07-15T15:03:33.728Z,29.10
2023-07-15T15:06:01.434Z,29.30
2023-07-15T15:08:28.496Z,29.70
2023-07-15T15:10:57.924Z,30.30
2023-07-15T15:13:25.358Z,29.50
2023-07-15T15:15:52.401Z,29.80
2023-07-15T15:18:19.834Z,29.70
2023-07-15T15:20:46.880Z,29.60
2023-07-15T15:23:13.955Z,29.40
2023-07-15T15:25:40.932Z,29.80
2023-07-15T15:28:07.984Z,29.80
2023-07-15T15:30:35.617Z,29.00
2023-07-15T15:33:02.685Z,28.40
2023-07-15T15:35:30.202Z,28.70
2023-07-15T15:37:58.216Z,28.90
2023-07-15T15:40:25.196Z,28.90
2023-07-15T15:42:52.476Z,28.90
2023-07-15T15:45:19.779Z,29.10
2023-07-15T15:47:46.882Z,29.60
2023-07-15T15:50:13.903Z,29.70
2023-07-15T15:52:46.533Z,29.80
2023-07-15T15:55:13.755Z,30.00
2023-07-15T15:57:40.778Z,30.50
2023-07-15T16:00:08.868Z,30.80
2023-07-15T16:02:41.817Z,30.60
2023-07-15T16:05:09.172Z,30.20
2023-07-15T16:07:36.219Z,30.20
2023-07-15T16:10:03.502Z,30.60
2023-07-15T16:12:30.520Z,30.60
2023-07-15T16:14:57.520Z,30.80
2023-07-15T16:17:24.632Z,31.00
2023-07-15T16:19:51.685Z,31.50
2023-07-15T16:22:19.878Z,31.70
2023-07-15T16:24:46.892Z,31.70
2023-07-15T16:27:13.912Z,32.00
2023-07-15T16:29:40.923Z,32.10
2023-07-15T16:32:08.232Z,32.10
2023-07-15T16:34:35.742Z,32.10
2023-07-15T16:37:03.592Z,31.70
2023-07-15T16:39:30.902Z,31.60
2023-07-15T16:41:57.890Z,31.90
2023-07-15T16:44:24.943Z,31.90
2023-07-15T16:46:51.946Z,32.20
2023-07-15T16:49:18.946Z,32.30
2023-07-15T16:51:45.966Z,32.40
2023-07-15T16:54:13.071Z,32.60
2023-07-15T16:56:40.197Z,32.80
2023-07-15T16:59:07.402Z,33.00
2023-07-15T17:01:34.948Z,32.80
2023-07-15T17:04:02.721Z,32.60
2023-07-15T17:06:29.740Z,32.70
2023-07-15T17:08:56.863Z,32.60
2023-07-15T17:11:23.892Z,32.60
2023-07-15T17:13:51.233Z,32.50
2023-07-15T17:16:18.256Z,32.50
2023-07-15T17:18:45.266Z,32.60
2023-07-15T17:21:12.513Z,32.60
2023-07-15T17:23:39.703Z,32.60
2023-07-15T17:26:06.738Z,32.80
2023-07-15T17:28:33.799Z,33.00
2023-07-15T17:31:00.896Z,33.40
2023-07-15T17:33:27.922Z,33.90
2023-07-15T17:35:54.940Z,34.20
2023-07-15T17:38:22.631Z,34.60
2023-07-15T17:40:50.999Z,35.00
2023-07-15T17:43:18.658Z,35.00
